Rosemount, Minnesota
Current Conditions -  °F | °C
As of 12:10 AM on Wednesday 22 Oct 2014 (Local Time) from KSGS Reporting Station
Clear Clear  
Wind Chill: 44°   Ceiling: Unl
Heat Index: 47°   Visibility: 10mi
Dew Point: 37°   Wind: 6mph
Humidity: 69%   Direction: 150°SSE
Pressure: 30.18"   Gusts: NA
Location:  44.74°N, 93.12°W
Report Text: KSGS 220510Z AUTO 15005KT 10SM CLR 08/03 A3018 RMK AO2 T00830030
Loading
Personal Weather Stations






























Interactive Weather Map
Tropical Storm Tracking
New forecast layout! Learn more

10-Day Weather Forecast

Advertisements
Track Severe Weather on mobile